Time;durP1;ratioP1;P1;durP2;ratioP2;P2;SDS_P1;SDS_P2;PMS_P1;PMS_P2;Temp;Humidity;BMP_temperature;BMP_pressure;BME280_temperature;BME280_humidity;BME280_pressure;Samples;Min_cycle;Max_cycle;Signal;HPM_P1;HPM_P2
2022/09/27 00:01:36;;;;;;;2.28;0.65;;;12.70;84.10;;;;;;5049020;28;20036;-73
2022/09/27 00:04:01;;;;;;;8.48;1.27;;;12.70;84.10;;;;;;5053576;28;20074;-75
2022/09/27 00:06:30;;;;;;;1.75;0.52;;;12.70;84.10;;;;;;5070472;28;21875;-75
2022/09/27 00:08:56;;;;;;;0.50;0.50;;;12.70;84.10;;;;;;5064832;28;20377;-74
2022/09/27 00:11:34;;;;;;;1.13;0.57;;;12.70;84.10;;;;;;5027892;28;20074;-75
2022/09/27 00:14:00;;;;;;;1.25;0.88;;;12.70;84.10;;;;;;5061793;28;20089;-75
2022/09/27 00:16:29;;;;;;;4.45;0.75;;;12.60;84.10;;;;;;5071190;28;20059;-74
2022/09/27 00:19:06;;;;;;;0.40;0.40;;;12.70;84.10;;;;;;5052410;28;20115;-74
2022/09/27 00:21:32;;;;;;;1.27;0.57;;;12.70;83.90;;;;;;5069544;28;20078;-74
2022/09/27 00:23:58;;;;;;;1.33;0.70;;;12.60;84.10;;;;;;5053426;28;20036;-75
2022/09/27 00:26:24;;;;;;;0.30;0.30;;;12.60;84.10;;;;;;5068426;28;20036;-75
2022/09/27 00:28:50;;;;;;;3.72;0.40;;;12.60;84.10;;;;;;5053355;28;20058;-75
2022/09/27 00:31:23;;;;;;;0.75;0.75;;;12.60;84.10;;;;;;5069720;28;20074;-74
2022/09/27 00:33:51;;;;;;;1.50;0.40;;;12.60;84.00;;;;;;5061197;28;20104;-73
2022/09/27 00:36:18;;;;;;;1.40;0.60;;;12.50;84.00;;;;;;5048915;28;20113;-75
2022/09/27 00:38:44;;;;;;;1.00;0.73;;;12.50;84.10;;;;;;5063073;28;20086;-74
2022/09/27 00:41:24;;;;;;;0.85;0.40;;;12.50;84.20;;;;;;5071166;28;20037;-73
2022/09/27 00:43:53;;;;;;;5.93;1.00;;;12.50;84.20;;;;;;5046637;28;20027;-74
2022/09/27 00:46:36;;;;;;;0.47;0.30;;;12.50;84.10;;;;;;5070388;28;20059;-74
2022/09/27 00:49:05;;;;;;;2.80;0.65;;;12.50;84.00;;;;;;5070199;28;20031;-72
2022/09/27 00:51:33;;;;;;;0.50;0.50;;;12.50;84.20;;;;;;5053063;28;20036;-74
2022/09/27 00:54:00;;;;;;;1.58;0.32;;;12.50;84.10;;;;;;5049650;28;20020;-72
2022/09/27 00:56:29;;;;;;;1.95;0.38;;;12.50;84.10;;;;;;5051924;28;20044;-72
2022/09/27 00:59:17;;;;;;;0.77;0.43;;;12.50;84.10;;;;;;5070001;28;20420;-74
2022/09/27 01:01:43;;;;;;;0.40;0.40;;;12.50;84.00;;;;;;5070907;28;20043;-72
2022/09/27 01:04:13;;;;;;;1.23;0.55;;;12.40;84.00;;;;;;5051312;28;20162;-72
2022/09/27 01:06:39;;;;;;;3.50;0.40;;;12.40;84.00;;;;;;5067263;28;20179;-73
2022/09/27 01:09:10;;;;;;;1.05;0.32;;;12.50;84.00;;;;;;5067358;28;20028;-73
2022/09/27 01:12:15;;;;;;;0.95;0.45;;;12.50;83.90;;;;;;5036342;28;20033;-73
2022/09/27 01:15:04;;;;;;;0.20;0.20;;;12.50;83.70;;;;;;5051166;28;20105;-72
2022/09/27 01:17:51;;;;;;;0.40;0.40;;;12.50;83.80;;;;;;5057490;28;20016;-73
2022/09/27 01:20:38;;;;;;;0.20;0.20;;;12.50;83.80;;;;;;5067082;28;20044;-72
2022/09/27 01:23:43;;;;;;;0.45;0.22;;;12.40;84.00;;;;;;5070357;28;20134;-73
2022/09/27 01:26:13;;;;;;;0.50;0.38;;;12.50;83.90;;;;;;5017358;28;20389;-73
2022/09/27 01:29:10;;;;;;;5.00;0.65;;;12.40;84.00;;;;;;5050156;28;20066;-74
2022/09/27 01:32:05;;;;;;;4.32;0.47;;;12.50;84.00;;;;;;5070183;28;20025;-74
2022/09/27 01:34:43;;;;;;;1.60;0.50;;;12.50;83.90;;;;;;5057259;28;20487;-74
2022/09/27 01:37:29;;;;;;;0.82;0.52;;;12.40;84.00;;;;;;5057731;28;20103;-73
2022/09/27 01:40:00;;;;;;;0.30;0.30;;;12.40;83.90;;;;;;5052049;28;20563;-74
2022/09/27 01:42:39;;;;;;;0.90;0.32;;;12.40;84.00;;;;;;5048690;28;20151;-73
2022/09/27 01:45:29;;;;;;;0.65;0.43;;;12.30;83.90;;;;;;5040119;28;20140;-73
2022/09/27 01:48:07;;;;;;;0.50;0.35;;;12.30;83.90;;;;;;5065267;28;20573;-74
2022/09/27 01:50:43;;;;;;;0.40;0.30;;;12.30;84.10;;;;;;5045628;28;20035;-74
2022/09/27 01:53:24;;;;;;;1.75;0.55;;;12.20;84.10;;;;;;5069733;28;20035;-74
2022/09/27 01:55:53;;;;;;;0.13;0.13;;;12.20;84.00;;;;;;5065388;28;20028;-74
2022/09/27 01:58:48;;;;;;;0.20;0.20;;;12.20;83.90;;;;;;5051735;28;20024;-74
2022/09/27 02:01:16;;;;;;;2.13;0.60;;;12.20;83.80;;;;;;5060679;28;20024;-74
2022/09/27 02:03:48;;;;;;;0.55;0.28;;;12.10;83.90;;;;;;5069039;28;20116;-74
2022/09/27 02:06:20;;;;;;;1.02;0.43;;;12.10;83.90;;;;;;5067496;28;20028;-74
2022/09/27 02:08:50;;;;;;;1.27;0.40;;;12.10;83.80;;;;;;5051505;28;20507;-74
2022/09/27 02:11:16;;;;;;;2.20;0.38;;;12.10;83.80;;;;;;5063409;28;20132;-74
2022/09/27 02:13:48;;;;;;;0.20;0.20;;;12.10;83.80;;;;;;5066805;28;20108;-74
2022/09/27 02:16:38;;;;;;;;;;;12.10;83.60;;;;;;5069737;28;20463;-74
2022/09/27 02:19:22;;;;;;;1.23;0.45;;;12.00;83.70;;;;;;5068521;28;19905;-74
2022/09/27 02:22:09;;;;;;;7.78;0.60;;;11.90;83.90;;;;;;5050160;28;20092;-74
2022/09/27 02:24:50;;;;;;;0.52;0.32;;;11.90;83.70;;;;;;5069419;28;20047;-73
2022/09/27 02:27:27;;;;;;;0.20;0.20;;;11.90;83.70;;;;;;5051428;28;20021;-75
2022/09/27 02:30:13;;;;;;;4.45;0.88;;;11.90;84.30;;;;;;5069138;28;20622;-74
2022/09/27 02:32:40;;;;;;;2.33;0.30;;;11.90;83.50;;;;;;5067036;28;20683;-74
2022/09/27 02:35:23;;;;;;;0.55;0.25;;;11.90;83.60;;;;;;5049676;28;20794;-74
2022/09/27 02:37:50;;;;;;;2.10;0.45;;;11.90;83.50;;;;;;5065676;28;20036;-74
2022/09/27 02:40:16;;;;;;;0.80;0.30;;;11.80;83.40;;;;;;5044598;28;20078;-74
2022/09/27 02:42:43;;;;;;;0.57;0.30;;;11.80;83.40;;;;;;5061003;28;20549;-75
2022/09/27 02:45:11;;;;;;;1.30;0.75;;;11.80;83.40;;;;;;5054971;28;20053;-75
2022/09/27 02:48:18;;;;;;;1.00;0.20;;;11.70;83.30;;;;;;5048218;28;20035;-75
2022/09/27 02:50:53;;;;;;;0.20;0.20;;;11.70;83.40;;;;;;5046753;28;20087;-74
2022/09/27 02:53:32;;;;;;;0.20;0.20;;;11.70;83.60;;;;;;5050012;28;20036;-72
2022/09/27 02:56:13;;;;;;;5.72;0.35;;;11.70;83.50;;;;;;5063942;28;20116;-73
2022/09/27 02:58:50;;;;;;;3.58;0.40;;;11.70;83.50;;;;;;5068837;28;20429;-73
2022/09/27 03:01:16;;;;;;;0.75;0.43;;;11.70;83.60;;;;;;5052277;28;20061;-73
2022/09/27 03:03:51;;;;;;;0.82;0.50;;;11.70;83.40;;;;;;5062017;28;20060;-73
2022/09/27 03:06:19;;;;;;;4.68;0.65;;;11.70;83.40;;;;;;5066748;28;20403;-74
2022/09/27 03:08:45;;;;;;;0.25;0.25;;;11.70;83.30;;;;;;5060242;28;20024;-74
2022/09/27 03:11:11;;;;;;;0.47;0.20;;;11.70;83.30;;;;;;5029312;28;20510;-73
2022/09/27 03:13:37;;;;;;;0.30;0.30;;;11.70;83.40;;;;;;5056601;28;20029;-73
2022/09/27 03:16:05;;;;;;;0.20;0.20;;;11.70;83.30;;;;;;5060807;28;20029;-73
2022/09/27 03:18:31;;;;;;;0.88;0.50;;;11.70;83.30;;;;;;5063800;28;20435;-74
2022/09/27 03:20:57;;;;;;;0.50;0.30;;;11.70;83.30;;;;;;5068190;28;20396;-74
2022/09/27 03:23:23;;;;;;;0.30;0.30;;;11.70;83.30;;;;;;5068163;28;20036;-74
2022/09/27 03:25:48;;;;;;;0.35;0.20;;;11.70;83.30;;;;;;5060418;28;20028;-74
2022/09/27 03:28:14;;;;;;;0.30;0.30;;;11.70;83.30;;;;;;5042727;28;20028;-74
2022/09/27 03:30:41;;;;;;;0.38;0.30;;;11.70;83.40;;;;;;5050332;28;20111;-74
2022/09/27 03:33:08;;;;;;;1.77;0.40;;;11.60;83.30;;;;;;5071324;28;20032;-74
2022/09/27 03:35:34;;;;;;;5.55;0.75;;;11.60;83.40;;;;;;5070489;28;20033;-75
2022/09/27 03:38:00;;;;;;;0.80;0.20;;;11.60;83.40;;;;;;5049100;28;20535;-74
2022/09/27 03:40:25;;;;;;;4.60;0.40;;;11.50;83.50;;;;;;5044140;28;20120;-74
2022/09/27 03:42:51;;;;;;;1.75;0.50;;;11.50;83.50;;;;;;5064057;28;20036;-74
2022/09/27 03:45:17;;;;;;;0.20;0.20;;;11.50;83.60;;;;;;5037158;28;20056;-75
2022/09/27 03:47:43;;;;;;;0.40;0.30;;;11.50;83.60;;;;;;5070630;28;20033;-76
2022/09/27 03:50:10;;;;;;;1.75;0.52;;;11.50;83.70;;;;;;5053176;28;20421;-76
2022/09/27 03:52:36;;;;;;;1.58;0.85;;;11.50;83.60;;;;;;5070199;28;20032;-76
2022/09/27 03:55:03;;;;;;;0.35;0.32;;;11.50;83.50;;;;;;5051868;28;20021;-76
2022/09/27 03:57:29;;;;;;;0.30;0.30;;;11.50;83.50;;;;;;5052876;28;20031;-74
2022/09/27 03:59:57;;;;;;;1.77;0.60;;;11.50;83.50;;;;;;5071002;28;20062;-75
2022/09/27 04:02:23;;;;;;;0.90;0.38;;;11.50;83.50;;;;;;5064893;28;20035;-74
2022/09/27 04:04:48;;;;;;;0.90;0.47;;;11.50;83.60;;;;;;5061924;28;20399;-75
2022/09/27 04:07:14;;;;;;;0.38;0.30;;;11.40;83.70;;;;;;5070565;28;20063;-74
2022/09/27 04:09:41;;;;;;;1.58;0.82;;;11.40;83.90;;;;;;5069998;28;20040;-74
2022/09/27 04:12:07;;;;;;;1.23;0.90;;;11.40;83.90;;;;;;5070789;28;20020;-75
2022/09/27 04:14:32;;;;;;;1.75;0.50;;;11.40;84.00;;;;;;5031444;28;20754;-75
2022/09/27 04:16:58;;;;;;;0.47;0.47;;;11.40;84.00;;;;;;5048898;28;20360;-75
2022/09/27 04:19:24;;;;;;;0.38;0.38;;;11.40;84.00;;;;;;5066663;28;20108;-76
2022/09/27 04:21:49;;;;;;;1.38;0.82;;;11.30;84.00;;;;;;5048395;28;20557;-76
2022/09/27 04:24:15;;;;;;;0.52;0.50;;;11.30;84.10;;;;;;5030850;28;20024;-76
2022/09/27 04:26:41;;;;;;;0.47;0.47;;;11.30;84.20;;;;;;5069709;28;20074;-75
2022/09/27 04:29:08;;;;;;;0.95;0.43;;;11.40;84.30;;;;;;5065934;28;20028;-75
2022/09/27 04:31:36;;;;;;;8.40;0.95;;;11.40;84.90;;;;;;5053172;28;20044;-76
2022/09/27 04:34:05;;;;;;;3.58;0.77;;;11.40;84.20;;;;;;5069594;28;20048;-76
2022/09/27 04:36:31;;;;;;;0.88;0.63;;;11.40;84.20;;;;;;5046644;28;20467;-75
2022/09/27 04:38:59;;;;;;;1.55;0.70;;;11.50;84.10;;;;;;5067549;28;20036;-76
2022/09/27 04:41:27;;;;;;;0.38;0.30;;;11.50;84.00;;;;;;5066106;28;20075;-76
2022/09/27 04:43:53;;;;;;;1.83;0.50;;;11.60;84.00;;;;;;5051634;28;20387;-76
2022/09/27 04:46:20;;;;;;;6.20;1.13;;;11.50;84.00;;;;;;5051686;28;20060;-76
2022/09/27 04:48:46;;;;;;;0.70;0.55;;;11.40;84.20;;;;;;5068168;28;20036;-76
2022/09/27 04:51:15;;;;;;;5.45;0.82;;;11.40;84.30;;;;;;5067417;28;20154;-76
2022/09/27 04:53:41;;;;;;;1.85;0.63;;;11.50;84.20;;;;;;5070675;28;20372;-76
2022/09/27 04:56:06;;;;;;;6.38;0.98;;;11.50;84.10;;;;;;5048946;28;20378;-76
2022/09/27 04:58:33;;;;;;;5.15;1.45;;;11.50;84.00;;;;;;5047092;28;20063;-76
2022/09/27 05:01:01;;;;;;;1.13;0.50;;;11.60;84.00;;;;;;5064337;28;20070;-75
2022/09/27 05:03:27;;;;;;;1.90;0.60;;;11.50;83.90;;;;;;5044716;28;20047;-76
2022/09/27 05:05:53;;;;;;;7.00;0.52;;;11.50;83.90;;;;;;5068399;28;20052;-76
2022/09/27 05:08:19;;;;;;;2.58;0.88;;;11.50;83.80;;;;;;5064102;28;20076;-76
2022/09/27 05:10:46;;;;;;;2.90;0.85;;;11.40;83.80;;;;;;5060452;28;20028;-76
2022/09/27 05:13:12;;;;;;;2.70;0.60;;;11.40;83.90;;;;;;5046551;28;20041;-75
2022/09/27 05:15:38;;;;;;;0.88;0.50;;;11.30;83.90;;;;;;5048068;28;20032;-76
2022/09/27 05:18:06;;;;;;;0.75;0.40;;;11.40;83.90;;;;;;5065251;28;20026;-76
2022/09/27 05:20:31;;;;;;;1.60;0.60;;;11.40;83.80;;;;;;5060892;28;20036;-76
2022/09/27 05:22:57;;;;;;;5.28;0.88;;;11.40;83.70;;;;;;5045310;28;20036;-76
2022/09/27 05:25:23;;;;;;;1.80;0.90;;;11.30;83.50;;;;;;5066790;28;20050;-76
2022/09/27 05:27:49;;;;;;;1.00;0.60;;;11.30;83.60;;;;;;5065111;28;20028;-76
2022/09/27 05:30:15;;;;;;;0.45;0.45;;;11.30;83.50;;;;;;5068646;28;20449;-76
2022/09/27 05:32:48;;;;;;;2.58;1.10;;;11.30;83.60;;;;;;5048110;28;20136;-75
2022/09/27 05:35:13;;;;;;;;;;;11.20;83.60;;;;;;5069036;28;20036;-75
2022/09/27 05:37:39;;;;;;;3.72;0.88;;;11.10;83.80;;;;;;5068121;28;19916;-76
2022/09/27 05:40:06;;;;;;;0.50;0.40;;;11.10;84.00;;;;;;5049657;28;20529;-75
2022/09/27 05:42:33;;;;;;;1.42;0.65;;;11.10;84.00;;;;;;5046760;28;20492;-75
2022/09/27 05:44:59;;;;;;;3.80;0.80;;;11.10;83.80;;;;;;5050358;28;20400;-75
2022/09/27 05:47:24;;;;;;;1.65;0.47;;;11.10;83.80;;;;;;5061237;28;20032;-75
2022/09/27 05:49:50;;;;;;;0.88;0.70;;;11.10;83.70;;;;;;5068403;28;20468;-75
2022/09/27 05:52:17;;;;;;;1.48;0.57;;;11.10;83.80;;;;;;5067153;28;20056;-75
2022/09/27 05:54:43;;;;;;;0.65;0.40;;;11.00;83.60;;;;;;5064233;28;20025;-76
2022/09/27 05:57:08;;;;;;;0.50;0.40;;;11.00;83.50;;;;;;5049780;28;20031;-75
2022/09/27 05:59:34;;;;;;;5.57;0.40;;;11.00;83.60;;;;;;5040575;28;20040;-75
2022/09/27 06:02:00;;;;;;;2.95;0.63;;;11.00;83.60;;;;;;5046897;28;20033;-75
2022/09/27 06:04:26;;;;;;;1.63;0.75;;;11.00;83.60;;;;;;5014006;28;20059;-75
2022/09/27 06:06:52;;;;;;;2.88;1.00;;;11.00;83.70;;;;;;5067676;28;20391;-75
2022/09/27 06:09:18;;;;;;;1.15;0.77;;;11.00;83.80;;;;;;5069479;28;20090;-75
2022/09/27 06:11:44;;;;;;;0.82;0.50;;;11.00;83.80;;;;;;5067409;28;20016;-75
2022/09/27 06:14:14;;;;;;;1.85;0.82;;;11.10;83.80;;;;;;5033892;28;20067;-75
2022/09/27 06:16:39;;;;;;;2.95;0.65;;;11.10;83.70;;;;;;5066821;28;20108;-75
2022/09/27 06:19:05;;;;;;;1.20;0.77;;;11.00;83.90;;;;;;5068755;28;20024;-75
2022/09/27 06:21:31;;;;;;;0.68;0.47;;;11.00;84.40;;;;;;5068834;28;20377;-75
2022/09/27 06:23:58;;;;;;;1.92;0.68;;;11.10;84.30;;;;;;5030336;28;20539;-75
2022/09/27 06:26:28;;;;;;;3.80;0.60;;;11.10;84.20;;;;;;5059704;28;20167;-75
2022/09/27 06:28:54;;;;;;;1.00;0.80;;;11.20;84.20;;;;;;5050876;28;20035;-75
2022/09/27 06:31:20;;;;;;;1.10;0.68;;;11.20;84.30;;;;;;5031144;28;20027;-75
2022/09/27 06:33:47;;;;;;;1.70;0.52;;;11.10;84.30;;;;;;5056224;28;20096;-75
2022/09/27 06:36:13;;;;;;;4.78;0.55;;;11.20;84.40;;;;;;5040738;28;20043;-75
2022/09/27 06:38:39;;;;;;;0.80;0.45;;;11.20;84.60;;;;;;5059929;28;20028;-75
2022/09/27 06:41:05;;;;;;;2.10;0.98;;;11.30;84.70;;;;;;5024695;28;20029;-74
2022/09/27 06:43:31;;;;;;;3.63;0.93;;;11.40;84.80;;;;;;5056844;28;20111;-74
2022/09/27 06:46:04;;;;;;;0.85;0.65;;;11.50;84.60;;;;;;5062011;28;20052;-75
2022/09/27 06:48:30;;;;;;;0.57;0.47;;;11.50;84.40;;;;;;5049173;28;20063;-75
2022/09/27 06:50:57;;;;;;;1.13;0.70;;;11.50;84.30;;;;;;5065298;28;20585;-75
2022/09/27 06:53:23;;;;;;;0.75;0.47;;;11.50;84.40;;;;;;5048271;28;20027;-74
2022/09/27 06:55:52;;;;;;;5.32;0.60;;;11.50;84.50;;;;;;5033867;28;20073;-74
2022/09/27 07:01:02;;;;;;;6.40;0.77;;;11.50;84.60;;;;;;5067242;28;20082;-74
2022/09/27 07:03:32;;;;;;;3.42;0.85;;;11.50;84.40;;;;;;5065618;28;20123;-76
2022/09/27 07:06:00;;;;;;;3.20;0.70;;;11.60;84.30;;;;;;5051194;28;20403;-76
2022/09/27 07:08:27;;;;;;;1.27;0.40;;;11.70;84.30;;;;;;5072730;28;20025;-76
2022/09/27 07:11:04;;;;;;;6.53;0.60;;;11.70;84.30;;;;;;5054417;28;20028;-75
2022/09/27 07:13:31;;;;;;;0.25;0.25;;;11.80;84.30;;;;;;5050907;28;20056;-75
2022/09/27 07:15:57;;;;;;;2.47;0.50;;;11.80;84.20;;;;;;5072510;28;20051;-75
2022/09/27 07:18:23;;;;;;;1.05;0.65;;;11.80;84.10;;;;;;5072059;28;20032;-74
2022/09/27 07:20:52;;;;;;;0.52;0.35;;;11.80;84.10;;;;;;5071960;28;20033;-74
2022/09/27 07:23:18;;;;;;;0.73;0.63;;;11.80;84.20;;;;;;5066528;28;20090;-73
2022/09/27 07:25:44;;;;;;;1.20;0.63;;;11.80;84.30;;;;;;5068868;28;20035;-74
2022/09/27 07:28:18;;;;;;;0.80;0.60;;;11.80;84.20;;;;;;5046108;28;20029;-73
2022/09/27 07:30:45;;;;;;;0.43;0.43;;;11.80;84.30;;;;;;5052793;28;20438;-73
2022/09/27 07:33:11;;;;;;;1.63;0.50;;;11.70;84.40;;;;;;5071920;28;20426;-73
2022/09/27 07:35:41;;;;;;;0.47;0.47;;;11.80;84.60;;;;;;5060161;28;20491;-73
2022/09/27 07:38:11;;;;;;;0.50;0.50;;;11.80;84.60;;;;;;5060116;28;20372;-73
2022/09/27 07:40:37;;;;;;;0.30;0.30;;;11.90;84.60;;;;;;5053170;28;20036;-73
2022/09/27 07:43:03;;;;;;;2.67;0.60;;;11.90;84.60;;;;;;5066663;28;20059;-73
2022/09/27 07:45:30;;;;;;;0.90;0.52;;;11.90;84.70;;;;;;5067205;28;20106;-72
2022/09/27 07:47:56;;;;;;;3.08;0.50;;;11.90;84.80;;;;;;5067455;28;20040;-73
2022/09/27 07:50:22;;;;;;;3.42;1.02;;;11.90;84.80;;;;;;5071384;28;20051;-73
2022/09/27 07:52:50;;;;;;;0.45;0.40;;;12.00;84.80;;;;;;5053834;28;20029;-73
2022/09/27 07:55:16;;;;;;;0.40;0.40;;;12.00;84.80;;;;;;5071708;28;20020;-73
2022/09/27 07:57:43;;;;;;;2.03;0.82;;;12.10;84.70;;;;;;5071574;28;20029;-73
2022/09/27 08:00:13;;;;;;;0.85;0.60;;;12.20;84.40;;;;;;5064905;28;20452;-73
2022/09/27 08:02:40;;;;;;;0.40;0.40;;;12.20;84.30;;;;;;5065634;28;20028;-73
2022/09/27 08:05:06;;;;;;;1.10;0.70;;;12.20;84.30;;;;;;5035381;28;20073;-73
2022/09/27 08:07:31;;;;;;;1.70;0.95;;;12.20;84.20;;;;;;5052858;28;20113;-74
2022/09/27 08:09:57;;;;;;;0.68;0.40;;;12.30;84.20;;;;;;5071269;28;20111;-74
2022/09/27 08:12:23;;;;;;;0.40;0.40;;;12.30;84.00;;;;;;5070922;28;20128;-74
2022/09/27 08:14:49;;;;;;;1.20;0.60;;;12.40;84.00;;;;;;5053430;28;20029;-74
2022/09/27 08:17:16;;;;;;;2.80;0.60;;;12.30;83.90;;;;;;5069921;28;20524;-74
2022/09/27 08:19:43;;;;;;;0.73;0.50;;;12.30;83.90;;;;;;5043866;28;20037;-74
2022/09/27 08:22:11;;;;;;;0.75;0.45;;;12.40;84.00;;;;;;5045637;28;20481;-74
2022/09/27 08:24:37;;;;;;;1.55;0.25;;;12.50;84.00;;;;;;5070845;28;20036;-71
2022/09/27 08:27:04;;;;;;;0.65;0.40;;;12.60;84.00;;;;;;5070727;28;20036;-71
2022/09/27 08:29:30;;;;;;;1.08;0.38;;;12.60;83.60;;;;;;5070708;28;20043;-74
2022/09/27 08:31:56;;;;;;;0.93;0.68;;;12.60;83.60;;;;;;5052694;28;20276;-74
2022/09/27 08:34:22;;;;;;;1.33;0.35;;;12.60;83.50;;;;;;5052315;28;20036;-74
2022/09/27 08:36:48;;;;;;;1.27;0.70;;;12.60;83.50;;;;;;5070531;28;20039;-74
2022/09/27 08:39:14;;;;;;;0.20;0.20;;;12.60;83.70;;;;;;5035787;28;20025;-74
2022/09/27 08:41:48;;;;;;;1.10;0.57;;;12.60;83.60;;;;;;5071103;28;20060;-74
2022/09/27 08:44:28;;;;;;;1.40;0.50;;;12.60;83.20;;;;;;5067053;28;20391;-73
2022/09/27 08:46:59;;;;;;;0.45;0.45;;;12.50;83.20;;;;;;5064895;28;20111;-74
2022/09/27 08:49:48;;;;;;;0.82;0.40;;;12.40;83.60;;;;;;5070352;28;20052;-74
2022/09/27 08:52:26;;;;;;;0.95;0.70;;;12.40;83.70;;;;;;5064637;28;20464;-74
2022/09/27 08:54:54;;;;;;;2.78;0.80;;;12.30;83.80;;;;;;5067348;28;20506;-73
2022/09/27 08:57:22;;;;;;;0.52;0.43;;;12.30;83.90;;;;;;5052769;28;20040;-74
2022/09/27 09:00:04;;;;;;;1.60;0.57;;;12.30;83.90;;;;;;5070246;28;20618;-74
2022/09/27 09:02:30;;;;;;;0.70;0.70;;;12.30;83.90;;;;;;5069506;28;20451;-73
2022/09/27 09:05:09;;;;;;;3.90;1.08;;;12.30;84.10;;;;;;5070010;28;20104;-74
2022/09/27 09:07:46;;;;;;;0.75;0.57;;;12.40;84.30;;;;;;5050352;28;20118;-74
2022/09/27 09:13:24;;;;;;;0.63;0.60;;;12.50;84.00;;;;;;5068925;28;20541;-73
2022/09/27 09:16:16;;;;;;;1.33;0.85;;;12.50;83.70;;;;;;5062994;28;20090;-75
2022/09/27 09:18:42;;;;;;;1.10;0.60;;;12.40;83.80;;;;;;5011968;28;20037;-75
2022/09/27 09:21:16;;;;;;;0.63;0.57;;;12.50;83.80;;;;;;5068974;28;20025;-74
2022/09/27 09:23:50;;;;;;;1.08;0.80;;;12.60;84.20;;;;;;5060561;28;20482;-74
2022/09/27 09:26:20;;;;;;;0.75;0.68;;;12.70;83.50;;;;;;5065980;28;20020;-73
2022/09/27 09:29:06;;;;;;;0.63;0.63;;;12.80;83.40;;;;;;5067558;28;20040;-75
2022/09/27 09:31:35;;;;;;;0.30;0.30;;;12.90;83.10;;;;;;5064750;28;20036;-77
2022/09/27 09:34:44;;;;;;;0.40;0.40;;;13.00;82.90;;;;;;5067076;28;20020;-72
2022/09/27 09:37:21;;;;;;;0.30;0.30;;;13.00;82.70;;;;;;4985364;28;20030;-72
2022/09/27 09:40:07;;;;;;;0.43;0.40;;;12.90;82.80;;;;;;4982873;28;20144;-74
2022/09/27 09:42:45;;;;;;;0.52;0.43;;;12.90;82.60;;;;;;5039879;28;20070;-73
2022/09/27 09:45:30;;;;;;;0.30;0.30;;;12.80;82.60;;;;;;5067815;28;20079;-73
2022/09/27 09:48:04;;;;;;;0.60;0.60;;;12.60;82.80;;;;;;5067431;28;20020;-73
2022/09/27 09:50:41;;;;;;;0.55;0.45;;;12.60;83.30;;;;;;5058709;28;20024;-72
2022/09/27 09:53:18;;;;;;;0.75;0.50;;;12.50;83.40;;;;;;5064102;28;20028;-75
2022/09/27 09:55:51;;;;;;;0.60;0.50;;;12.50;83.40;;;;;;5046581;28;20621;-75
2022/09/27 09:58:27;;;;;;;0.73;0.70;;;12.40;83.40;;;;;;5048246;28;20025;-74
2022/09/27 10:00:59;;;;;;;0.55;0.50;;;12.40;83.60;;;;;;5048550;28;20062;-75
2022/09/27 10:03:25;;;;;;;1.15;0.65;;;12.40;83.80;;;;;;5048467;28;20024;-75
2022/09/27 10:05:51;;;;;;;4.05;0.55;;;12.40;83.60;;;;;;5027170;28;20128;-75
2022/09/27 10:08:20;;;;;;;1.17;0.50;;;12.40;83.60;;;;;;5046113;28;20108;-74
2022/09/27 10:10:45;;;;;;;1.15;0.50;;;12.40;83.70;;;;;;5064761;28;20081;-75
2022/09/27 10:13:16;;;;;;;1.85;0.82;;;12.40;83.80;;;;;;5066066;28;20032;-74
2022/09/27 10:15:45;;;;;;;1.15;0.73;;;12.50;83.80;;;;;;5061152;28;20404;-75
2022/09/27 10:18:16;;;;;;;0.68;0.40;;;12.50;83.60;;;;;;5060375;28;20554;-72
2022/09/27 10:20:48;;;;;;;3.78;0.88;;;12.60;83.30;;;;;;5059730;28;20032;-72
2022/09/27 10:23:20;;;;;;;0.25;0.22;;;12.60;82.40;;;;;;5057598;28;20067;-70
2022/09/27 10:26:03;;;;;;;1.15;0.57;;;12.60;82.70;;;;;;5061334;28;20058;-70
2022/09/27 10:28:36;;;;;;;0.50;0.50;;;12.60;82.70;;;;;;5064879;28;20052;-72
2022/09/27 10:31:11;;;;;;;0.40;0.40;;;12.60;82.70;;;;;;5049562;28;20020;-72
2022/09/27 10:33:55;;;;;;;0.20;0.20;;;12.60;82.40;;;;;;5047694;28;20129;-71
2022/09/27 10:36:33;;;;;;;0.47;0.30;;;12.60;82.30;;;;;;5061589;28;20036;-74
2022/09/27 10:39:03;;;;;;;1.58;0.32;;;12.60;82.40;;;;;;5065954;28;20033;-71
2022/09/27 10:41:40;;;;;;;0.20;0.20;;;12.60;82.40;;;;;;5062335;28;20115;-71
2022/09/27 10:44:19;;;;;;;0.88;0.60;;;12.70;82.40;;;;;;5058704;28;20035;-71
2022/09/27 10:46:50;;;;;;;0.20;0.20;;;12.70;82.20;;;;;;5044354;28;20421;-73
2022/09/27 10:49:16;;;;;;;7.88;0.68;;;12.80;82.20;;;;;;5055972;28;20064;-73
2022/09/27 10:51:43;;;;;;;1.10;0.35;;;12.80;82.10;;;;;;5061303;28;20055;-73
2022/09/27 10:54:21;;;;;;;0.25;0.20;;;12.70;81.70;;;;;;5061932;28;20025;-74
2022/09/27 10:56:59;;;;;;;0.98;0.40;;;12.80;82.00;;;;;;5061002;28;20029;-74
2022/09/27 10:59:26;;;;;;;1.35;0.55;;;12.80;81.80;;;;;;5046969;28;20028;-72
2022/09/27 11:01:52;;;;;;;2.17;0.38;;;12.80;81.90;;;;;;5062876;28;20028;-72
2022/09/27 11:04:31;;;;;;;0.55;0.40;;;12.90;81.90;;;;;;5028777;28;20029;-73
2022/09/27 11:07:23;;;;;;;2.55;0.47;;;13.00;81.80;;;;;;5062569;28;20028;-72
2022/09/27 11:10:01;;;;;;;1.65;0.40;;;13.20;81.40;;;;;;5054022;28;20377;-74
2022/09/27 11:12:29;;;;;;;0.40;0.32;;;13.20;80.90;;;;;;5057221;28;20483;-72
2022/09/27 11:15:06;;;;;;;3.30;0.50;;;13.20;80.80;;;;;;5049291;28;20098;-72
2022/09/27 11:17:46;;;;;;;0.22;0.22;;;13.10;80.30;;;;;;5063854;28;20095;-72
2022/09/27 11:20:20;;;;;;;0.57;0.43;;;13.10;80.20;;;;;;5065072;28;20059;-73
2022/09/27 11:22:56;;;;;;;0.20;0.20;;;12.90;79.60;;;;;;5066093;28;20032;-73
2022/09/27 11:25:43;;;;;;;1.95;0.20;;;12.90;80.00;;;;;;5061416;28;20032;-74
2022/09/27 11:28:38;;;;;;;0.50;0.50;;;12.80;80.00;;;;;;5046624;28;20040;-74
2022/09/27 11:31:25;;;;;;;0.40;0.40;;;12.80;79.60;;;;;;5065445;28;20023;-74
2022/09/27 11:34:20;;;;;;;0.82;0.38;;;12.70;79.90;;;;;;5056877;28;20114;-74
2022/09/27 11:37:07;;;;;;;0.30;0.20;;;12.80;80.30;;;;;;5061980;28;20016;-74
2022/09/27 11:39:39;;;;;;;1.10;0.30;;;12.90;80.40;;;;;;5063384;28;20036;-72
2022/09/27 11:42:22;;;;;;;0.20;0.20;;;13.00;80.10;;;;;;5040529;28;20047;-72
2022/09/27 11:45:23;;;;;;;0.22;0.22;;;13.20;80.20;;;;;;5058936;28;20049;-73
2022/09/27 11:47:57;;;;;;;1.00;0.20;;;13.50;79.80;;;;;;5065734;28;20060;-72
2022/09/27 11:50:52;;;;;;;0.25;0.25;;;13.80;79.60;;;;;;5067293;28;20024;-72
2022/09/27 11:53:50;;;;;;;0.50;0.50;;;14.10;78.20;;;;;;5064414;28;20308;-74
2022/09/27 11:56:26;;;;;;;0.30;0.30;;;14.40;78.00;;;;;;5065729;28;20021;-74
2022/09/27 11:59:03;;;;;;;1.00;0.32;;;14.50;77.70;;;;;;5062350;28;20117;-74
2022/09/27 12:01:59;;;;;;;0.63;0.40;;;14.60;77.40;;;;;;5070043;28;20032;-74
2022/09/27 12:05:01;;;;;;;1.98;0.63;;;14.60;76.90;;;;;;5051019;28;20093;-74
2022/09/27 12:07:32;;;;;;;2.00;0.30;;;14.50;76.60;;;;;;5049758;28;20041;-74
2022/09/27 12:10:04;;;;;;;0.35;0.22;;;14.30;76.80;;;;;;5071121;28;20024;-72
2022/09/27 12:12:34;;;;;;;1.30;0.82;;;14.10;77.10;;;;;;5067695;28;20569;-72
2022/09/27 12:15:18;;;;;;;0.20;0.20;;;14.10;77.20;;;;;;5064255;28;20023;-75
2022/09/27 12:17:48;;;;;;;0.30;0.30;;;14.00;77.30;;;;;;5051750;28;20487;-75
2022/09/27 12:20:29;;;;;;;0.20;0.20;;;14.00;77.00;;;;;;5051282;28;20472;-72
2022/09/27 12:23:17;;;;;;;0.73;0.40;;;13.90;76.70;;;;;;5038071;28;20047;-72
2022/09/27 12:25:46;;;;;;;0.80;0.30;;;13.80;76.40;;;;;;5066084;28;20051;-74
2022/09/27 12:28:21;;;;;;;0.20;0.20;;;13.60;76.50;;;;;;5040890;28;20041;-74
2022/09/27 12:30:56;;;;;;;0.95;0.20;;;13.60;76.80;;;;;;5046849;28;20124;-75
2022/09/27 12:33:31;;;;;;;0.60;0.32;;;13.60;76.10;;;;;;5051009;28;20029;-75
2022/09/27 12:36:00;;;;;;;0.98;0.20;;;13.60;76.20;;;;;;5048281;28;20025;-75
2022/09/27 12:39:01;;;;;;;0.45;0.30;;;13.70;77.50;;;;;;5066985;28;20031;-75
2022/09/27 12:41:31;;;;;;;0.20;0.20;;;13.80;75.10;;;;;;5065545;28;20093;-75
2022/09/27 12:43:58;;;;;;;0.57;0.43;;;13.80;75.90;;;;;;5062669;28;20021;-74
2022/09/27 12:46:30;;;;;;;0.10;0.10;;;13.90;75.70;;;;;;5064043;28;20035;-75
2022/09/27 12:49:25;;;;;;;1.85;0.30;;;13.90;75.80;;;;;;5044120;28;20060;-75
2022/09/27 12:51:59;;;;;;;0.43;0.17;;;14.00;75.50;;;;;;5061169;28;20024;-72
2022/09/27 12:54:25;;;;;;;0.30;0.30;;;14.00;75.40;;;;;;5045997;28;20025;-72
2022/09/27 12:57:03;;;;;;;0.32;0.30;;;14.00;75.10;;;;;;5065992;28;20360;-75
2022/09/27 12:59:43;;;;;;;0.20;0.20;;;14.00;75.10;;;;;;5064560;28;20033;-75
2022/09/27 13:02:37;;;;;;;0.65;0.22;;;13.90;75.10;;;;;;5065210;28;20078;-75
2022/09/27 13:05:21;;;;;;;0.32;0.32;;;14.00;75.10;;;;;;5037093;28;20402;-75
2022/09/27 13:08:00;;;;;;;0.25;0.25;;;14.10;75.00;;;;;;5069385;28;20028;-75
2022/09/27 13:10:46;;;;;;;0.30;0.30;;;14.10;75.00;;;;;;5049461;28;20028;-76
2022/09/27 13:13:15;;;;;;;0.93;0.40;;;13.90;74.20;;;;;;5065465;28;20027;-75
2022/09/27 13:15:45;;;;;;;0.20;0.20;;;13.60;74.70;;;;;;5046724;28;20029;-72
2022/09/27 13:18:31;;;;;;;0.13;0.13;;;13.50;75.50;;;;;;5063238;28;20111;-75
2022/09/27 13:20:57;;;;;;;0.22;0.22;;;13.40;75.80;;;;;;5044573;28;20035;-72